sensor_id;sensor_type;location;lat;lon;timestamp;pressure;altitude;pressure_sealevel;temperature;humidity
43217;BME280;71549;42.686;23.300;2023-09-30T00:01:32;95165.25;;;25.43;30.21
43217;BME280;71549;42.686;23.300;2023-09-30T00:03:33;95140.63;;;25.32;30.40
43217;BME280;71549;42.686;23.300;2023-09-30T00:05:34;95156.59;;;25.37;30.39
43217;BME280;71549;42.686;23.300;2023-09-30T00:07:34;95151.09;;;25.34;30.56
43217;BME280;71549;42.686;23.300;2023-09-30T00:09:35;95154.25;;;25.36;30.38
43217;BME280;71549;42.686;23.300;2023-09-30T00:11:35;95158.16;;;25.38;30.31
43217;BME280;71549;42.686;23.300;2023-09-30T00:13:36;95154.16;;;25.32;30.40
43217;BME280;71549;42.686;23.300;2023-09-30T00:15:36;95146.28;;;25.27;30.97
43217;BME280;71549;42.686;23.300;2023-09-30T00:17:37;95159.66;;;25.36;30.89
43217;BME280;71549;42.686;23.300;2023-09-30T00:19:38;95155.38;;;25.35;31.15
43217;BME280;71549;42.686;23.300;2023-09-30T00:21:38;95143.59;;;25.27;30.93
43217;BME280;71549;42.686;23.300;2023-09-30T00:23:39;95124.63;;;25.11;30.71
43217;BME280;71549;42.686;23.300;2023-09-30T00:25:40;95133.81;;;25.22;31.00
43217;BME280;71549;42.686;23.300;2023-09-30T00:27:40;95118.78;;;25.09;30.95
43217;BME280;71549;42.686;23.300;2023-09-30T00:29:41;95002.91;;;24.35;31.06
43217;BME280;71549;42.686;23.300;2023-09-30T00:31:41;95094.13;;;24.98;30.95
43217;BME280;71549;42.686;23.300;2023-09-30T00:33:42;95153.44;;;25.35;31.12
43217;BME280;71549;42.686;23.300;2023-09-30T00:35:42;95142.88;;;25.30;31.24
43217;BME280;71549;42.686;23.300;2023-09-30T00:37:43;95106.28;;;25.04;30.63
43217;BME280;71549;42.686;23.300;2023-09-30T00:39:44;95152.16;;;25.29;31.02
43217;BME280;71549;42.686;23.300;2023-09-30T00:41:44;95134.16;;;25.21;31.04
43217;BME280;71549;42.686;23.300;2023-09-30T00:43:48;95140.00;;;25.23;31.08
43217;BME280;71549;42.686;23.300;2023-09-30T00:45:52;95115.69;;;25.11;30.98
43217;BME280;71549;42.686;23.300;2023-09-30T00:48:00;95149.81;;;25.28;30.91
43217;BME280;71549;42.686;23.300;2023-09-30T00:50:02;95153.63;;;25.26;30.73
43217;BME280;71549;42.686;23.300;2023-09-30T00:52:03;95149.38;;;25.25;31.02
43217;BME280;71549;42.686;23.300;2023-09-30T00:54:04;95140.00;;;25.23;30.81
43217;BME280;71549;42.686;23.300;2023-09-30T00:56:06;95133.25;;;25.17;31.02
43217;BME280;71549;42.686;23.300;2023-09-30T00:58:06;95113.53;;;25.00;30.59
43217;BME280;71549;42.686;23.300;2023-09-30T01:00:08;95146.88;;;25.20;30.77
43217;BME280;71549;42.686;23.300;2023-09-30T01:02:12;95122.97;;;25.06;31.16
43217;BME280;71549;42.686;23.300;2023-09-30T01:04:12;95141.47;;;25.20;30.98
43217;BME280;71549;42.686;23.300;2023-09-30T01:06:14;95145.00;;;25.21;31.17
43217;BME280;71549;42.686;23.300;2023-09-30T01:08:16;95119.13;;;25.08;31.17
43217;BME280;71549;42.686;23.300;2023-09-30T01:10:17;95130.91;;;25.15;31.24
43217;BME280;71549;42.686;23.300;2023-09-30T01:12:18;95126.63;;;25.14;30.99
43217;BME280;71549;42.686;23.300;2023-09-30T01:16:25;95137.28;;;25.23;31.40
43217;BME280;71549;42.686;23.300;2023-09-30T01:18:27;95134.16;;;25.21;31.64
43217;BME280;71549;42.686;23.300;2023-09-30T01:20:28;95102.63;;;24.97;31.30
43217;BME280;71549;42.686;23.300;2023-09-30T01:22:28;95128.56;;;25.14;31.51
43217;BME280;71549;42.686;23.300;2023-09-30T01:24:30;95134.84;;;25.18;31.19
43217;BME280;71549;42.686;23.300;2023-09-30T01:26:30;95103.94;;;25.03;31.05
43217;BME280;71549;42.686;23.300;2023-09-30T01:28:31;95139.47;;;25.17;31.10
43217;BME280;71549;42.686;23.300;2023-09-30T01:30:32;95127.41;;;25.15;30.82
43217;BME280;71549;42.686;23.300;2023-09-30T01:32:33;95126.19;;;25.12;31.02
43217;BME280;71549;42.686;23.300;2023-09-30T01:34:34;95088.66;;;24.95;31.18
43217;BME280;71549;42.686;23.300;2023-09-30T01:36:34;95133.34;;;25.20;31.22
43217;BME280;71549;42.686;23.300;2023-09-30T01:38:35;95136.84;;;25.21;31.34
43217;BME280;71549;42.686;23.300;2023-09-30T01:40:37;95135.63;;;25.18;31.06
43217;BME280;71549;42.686;23.300;2023-09-30T01:42:38;95137.97;;;25.20;31.13
43217;BME280;71549;42.686;23.300;2023-09-30T01:44:40;95129.00;;;25.16;31.13
43217;BME280;71549;42.686;23.300;2023-09-30T01:46:40;95137.91;;;25.16;31.08
43217;BME280;71549;42.686;23.300;2023-09-30T01:48:41;95137.91;;;25.16;31.03
43217;BME280;71549;42.686;23.300;2023-09-30T01:50:41;95134.06;;;25.17;31.47
43217;BME280;71549;42.686;23.300;2023-09-30T01:52:42;95136.69;;;25.14;31.48
43217;BME280;71549;42.686;23.300;2023-09-30T01:54:43;95117.03;;;25.01;31.54
43217;BME280;71549;42.686;23.300;2023-09-30T01:56:44;95009.38;;;24.31;31.79
43217;BME280;71549;42.686;23.300;2023-09-30T01:58:45;95109.06;;;24.92;31.52
43217;BME280;71549;42.686;23.300;2023-09-30T02:00:45;95029.28;;;24.38;32.18
43217;BME280;71549;42.686;23.300;2023-09-30T02:02:45;95123.50;;;24.96;31.88
43217;BME280;71549;42.686;23.300;2023-09-30T02:04:46;95125.94;;;25.01;31.66
43217;BME280;71549;42.686;23.300;2023-09-30T02:06:46;95127.06;;;25.00;32.10
43217;BME280;71549;42.686;23.300;2023-09-30T02:08:47;95131.28;;;24.98;31.83
43217;BME280;71549;42.686;23.300;2023-09-30T02:10:48;95097.47;;;24.76;31.80
43217;BME280;71549;42.686;23.300;2023-09-30T02:12:48;95107.34;;;24.84;32.15
43217;BME280;71549;42.686;23.300;2023-09-30T02:14:49;95126.81;;;24.90;31.80
43217;BME280;71549;42.686;23.300;2023-09-30T02:16:49;95127.94;;;24.89;31.54
43217;BME280;71549;42.686;23.300;2023-09-30T02:18:50;95125.50;;;24.83;32.14
43217;BME280;71549;42.686;23.300;2023-09-30T02:20:50;95128.84;;;24.77;31.66
43217;BME280;71549;42.686;23.300;2023-09-30T02:22:52;95119.91;;;24.76;31.78
43217;BME280;71549;42.686;23.300;2023-09-30T02:24:52;95112.47;;;24.57;31.66
43217;BME280;71549;42.686;23.300;2023-09-30T02:26:54;95118.50;;;24.51;31.81
43217;BME280;71549;42.686;23.300;2023-09-30T02:28:55;95134.56;;;24.59;31.56
43217;BME280;71549;42.686;23.300;2023-09-30T02:30:56;95117.41;;;24.39;31.93
43217;BME280;71549;42.686;23.300;2023-09-30T02:32:56;95085.88;;;24.15;31.61
43217;BME280;71549;42.686;23.300;2023-09-30T02:34:57;95131.13;;;24.46;31.63
43217;BME280;71549;42.686;23.300;2023-09-30T02:36:58;95130.44;;;24.50;31.96
43217;BME280;71549;42.686;23.300;2023-09-30T02:39:00;95133.84;;;24.46;31.77
43217;BME280;71549;42.686;23.300;2023-09-30T02:41:01;95133.50;;;24.48;31.86
43217;BME280;71549;42.686;23.300;2023-09-30T02:43:02;94987.41;;;23.44;32.05
43217;BME280;71549;42.686;23.300;2023-09-30T02:45:07;95119.22;;;24.19;32.48
43217;BME280;71549;42.686;23.300;2023-09-30T02:47:10;95109.91;;;24.04;32.49
43217;BME280;71549;42.686;23.300;2023-09-30T02:49:11;95085.56;;;23.89;32.73
43217;BME280;71549;42.686;23.300;2023-09-30T02:51:11;95055.97;;;23.67;32.52
43217;BME280;71549;42.686;23.300;2023-09-30T02:53:12;95131.84;;;24.15;33.51
43217;BME280;71549;42.686;23.300;2023-09-30T02:55:13;95136.66;;;24.22;32.75
43217;BME280;71549;42.686;23.300;2023-09-30T02:57:13;95125.25;;;24.29;32.64
43217;BME280;71549;42.686;23.300;2023-09-30T02:59:14;95136.59;;;24.34;32.36
43217;BME280;71549;42.686;23.300;2023-09-30T03:01:17;95124.03;;;24.26;32.47
43217;BME280;71549;42.686;23.300;2023-09-30T03:03:17;95128.94;;;24.36;33.25
43217;BME280;71549;42.686;23.300;2023-09-30T03:05:18;95137.38;;;24.35;32.53
43217;BME280;71549;42.686;23.300;2023-09-30T03:07:20;95087.94;;;24.06;32.80
43217;BME280;71549;42.686;23.300;2023-09-30T03:09:20;95131.38;;;24.41;32.99
43217;BME280;71549;42.686;23.300;2023-09-30T03:11:21;95135.66;;;24.42;32.61
43217;BME280;71549;42.686;23.300;2023-09-30T03:13:21;95118.00;;;24.33;32.45
43217;BME280;71549;42.686;23.300;2023-09-30T03:15:22;95118.78;;;24.33;32.33
43217;BME280;71549;42.686;23.300;2023-09-30T03:17:23;95127.78;;;24.37;32.43
43217;BME280;71549;42.686;23.300;2023-09-30T03:19:26;95094.66;;;24.12;32.47
43217;BME280;71549;42.686;23.300;2023-09-30T03:21:26;95131.81;;;24.43;32.47
43217;BME280;71549;42.686;23.300;2023-09-30T03:23:29;95105.97;;;24.30;32.93
43217;BME280;71549;42.686;23.300;2023-09-30T03:25:31;95098.97;;;24.29;33.46
43217;BME280;71549;42.686;23.300;2023-09-30T03:27:33;95072.16;;;24.08;33.47
43217;BME280;71549;42.686;23.300;2023-09-30T03:29:35;95128.31;;;24.43;33.37
43217;BME280;71549;42.686;23.300;2023-09-30T03:31:38;95123.69;;;24.43;33.47
43217;BME280;71549;42.686;23.300;2023-09-30T03:33:38;95127.97;;;24.44;33.55
43217;BME280;71549;42.686;23.300;2023-09-30T03:35:39;95126.06;;;24.45;33.46
43217;BME280;71549;42.686;23.300;2023-09-30T03:37:39;95125.63;;;24.43;33.21
43217;BME280;71549;42.686;23.300;2023-09-30T03:39:41;95131.75;;;24.40;33.09
43217;BME280;71549;42.686;23.300;2023-09-30T03:41:41;95129.47;;;24.42;33.53
43217;BME280;71549;42.686;23.300;2023-09-30T03:43:42;95111.09;;;24.35;33.74
43217;BME280;71549;42.686;23.300;2023-09-30T03:45:42;95101.44;;;24.34;33.32
43217;BME280;71549;42.686;23.300;2023-09-30T03:47:44;95034.19;;;23.89;33.51
43217;BME280;71549;42.686;23.300;2023-09-30T03:49:44;95122.22;;;24.46;33.53
43217;BME280;71549;42.686;23.300;2023-09-30T03:51:48;95120.66;;;24.45;33.00
43217;BME280;71549;42.686;23.300;2023-09-30T03:53:51;95117.50;;;24.43;32.90
43217;BME280;71549;42.686;23.300;2023-09-30T03:55:52;95111.47;;;24.34;33.11
43217;BME280;71549;42.686;23.300;2023-09-30T03:57:52;95119.94;;;24.32;33.42
43217;BME280;71549;42.686;23.300;2023-09-30T03:59:53;95111.72;;;24.29;33.12
43217;BME280;71549;42.686;23.300;2023-09-30T04:01:53;95104.09;;;24.18;32.87
43217;BME280;71549;42.686;23.300;2023-09-30T04:03:54;95119.38;;;24.26;33.66
43217;BME280;71549;42.686;23.300;2023-09-30T04:05:56;95126.38;;;24.27;33.25
43217;BME280;71549;42.686;23.300;2023-09-30T04:07:57;95090.91;;;24.01;33.21
43217;BME280;71549;42.686;23.300;2023-09-30T04:09:57;95127.06;;;24.24;33.12
43217;BME280;71549;42.686;23.300;2023-09-30T04:11:58;94954.06;;;23.12;33.14
43217;BME280;71549;42.686;23.300;2023-09-30T04:13:58;95098.75;;;24.06;32.55
43217;BME280;71549;42.686;23.300;2023-09-30T04:15:59;95112.38;;;24.10;32.95
43217;BME280;71549;42.686;23.300;2023-09-30T04:17:59;95101.28;;;23.99;32.97
43217;BME280;71549;42.686;23.300;2023-09-30T04:20:01;95131.69;;;24.24;33.67
43217;BME280;71549;42.686;23.300;2023-09-30T04:22:01;95137.88;;;24.24;33.15
43217;BME280;71549;42.686;23.300;2023-09-30T04:24:02;95022.47;;;23.56;33.24
43217;BME280;71549;42.686;23.300;2023-09-30T04:26:04;95142.19;;;24.25;33.92
43217;BME280;71549;42.686;23.300;2023-09-30T04:28:06;95123.63;;;24.12;33.06
43217;BME280;71549;42.686;23.300;2023-09-30T04:30:07;95148.25;;;24.22;33.54
43217;BME280;71549;42.686;23.300;2023-09-30T04:32:09;95149.03;;;24.23;33.63
43217;BME280;71549;42.686;23.300;2023-09-30T04:34:10;95137.34;;;24.19;33.51
43217;BME280;71549;42.686;23.300;2023-09-30T04:36:11;95134.19;;;24.17;32.60
43217;BME280;71549;42.686;23.300;2023-09-30T04:38:12;95140.50;;;24.21;32.65
43217;BME280;71549;42.686;23.300;2023-09-30T04:40:13;95142.34;;;24.33;32.25
43217;BME280;71549;42.686;23.300;2023-09-30T04:42:22;95150.47;;;24.33;32.13
43217;BME280;71549;42.686;23.300;2023-09-30T04:44:25;95125.13;;;24.09;32.14
43217;BME280;71549;42.686;23.300;2023-09-30T04:46:28;95152.84;;;24.34;32.15
43217;BME280;71549;42.686;23.300;2023-09-30T04:48:28;95150.19;;;24.22;31.94
43217;BME280;71549;42.686;23.300;2023-09-30T04:50:29;95106.59;;;23.95;31.75
43217;BME280;71549;42.686;23.300;2023-09-30T04:52:30;95120.88;;;23.96;31.92
43217;BME280;71549;42.686;23.300;2023-09-30T04:54:31;95055.00;;;23.47;31.64
43217;BME280;71549;42.686;23.300;2023-09-30T04:56:31;95128.53;;;23.94;31.37
43217;BME280;71549;42.686;23.300;2023-09-30T04:58:32;95158.78;;;24.12;32.12
43217;BME280;71549;42.686;23.300;2023-09-30T05:00:33;95161.06;;;24.10;31.83
43217;BME280;71549;42.686;23.300;2023-09-30T05:02:35;95119.66;;;23.93;31.75
43217;BME280;71549;42.686;23.300;2023-09-30T05:04:36;95161.13;;;24.25;32.16
43217;BME280;71549;42.686;23.300;2023-09-30T05:06:37;95169.31;;;24.29;32.11
43217;BME280;71549;42.686;23.300;2023-09-30T05:08:37;95160.06;;;24.30;31.82
43217;BME280;71549;42.686;23.300;2023-09-30T05:10:38;95168.63;;;24.32;32.02
43217;BME280;71549;42.686;23.300;2023-09-30T05:12:38;95171.34;;;24.32;31.76
43217;BME280;71549;42.686;23.300;2023-09-30T05:14:41;95062.19;;;23.56;31.96
43217;BME280;71549;42.686;23.300;2023-09-30T05:16:41;95146.22;;;24.03;31.72
43217;BME280;71549;42.686;23.300;2023-09-30T05:18:43;95155.25;;;23.95;31.97
43217;BME280;71549;42.686;23.300;2023-09-30T05:20:44;95153.66;;;23.94;31.66
43217;BME280;71549;42.686;23.300;2023-09-30T05:22:44;95173.59;;;24.02;31.90
43217;BME280;71549;42.686;23.300;2023-09-30T05:24:45;95169.63;;;24.12;31.74
43217;BME280;71549;42.686;23.300;2023-09-30T05:26:46;95132.72;;;23.91;32.37
43217;BME280;71549;42.686;23.300;2023-09-30T05:28:48;95171.97;;;24.13;31.74
43217;BME280;71549;42.686;23.300;2023-09-30T05:30:48;95117.69;;;23.65;31.63
43217;BME280;71549;42.686;23.300;2023-09-30T05:32:51;95176.19;;;23.98;31.70
43217;BME280;71549;42.686;23.300;2023-09-30T05:34:53;95181.97;;;23.84;31.92
43217;BME280;71549;42.686;23.300;2023-09-30T05:36:54;95132.72;;;23.38;31.96
43217;BME280;71549;42.686;23.300;2023-09-30T05:38:54;95193.13;;;23.71;32.84
43217;BME280;71549;42.686;23.300;2023-09-30T05:40:55;95157.56;;;23.56;32.62
43217;BME280;71549;42.686;23.300;2023-09-30T05:42:57;95197.84;;;23.61;32.64
43217;BME280;71549;42.686;23.300;2023-09-30T05:44:58;95157.59;;;23.32;32.70
43217;BME280;71549;42.686;23.300;2023-09-30T05:47:00;95192.91;;;23.51;33.26
43217;BME280;71549;42.686;23.300;2023-09-30T05:49:00;95070.94;;;22.75;33.15
43217;BME280;71549;42.686;23.300;2023-09-30T05:51:00;95174.31;;;23.50;33.68
43217;BME280;71549;42.686;23.300;2023-09-30T05:53:02;95199.22;;;23.43;33.57
43217;BME280;71549;42.686;23.300;2023-09-30T05:55:03;95193.16;;;23.46;33.48
43217;BME280;71549;42.686;23.300;2023-09-30T05:57:04;95179.22;;;23.32;33.54
43217;BME280;71549;42.686;23.300;2023-09-30T05:59:05;95194.84;;;23.51;33.65
43217;BME280;71549;42.686;23.300;2023-09-30T06:01:10;95139.16;;;23.21;33.67
43217;BME280;71549;42.686;23.300;2023-09-30T06:03:14;95171.28;;;23.51;33.26
43217;BME280;71549;42.686;23.300;2023-09-30T06:05:15;95186.94;;;23.58;33.20
43217;BME280;71549;42.686;23.300;2023-09-30T06:07:19;95164.44;;;23.41;33.45
43217;BME280;71549;42.686;23.300;2023-09-30T06:09:20;95062.97;;;22.54;33.45
43217;BME280;71549;42.686;23.300;2023-09-30T06:11:25;95204.19;;;23.29;33.32
43217;BME280;71549;42.686;23.300;2023-09-30T06:13:28;95196.31;;;23.11;33.89
43217;BME280;71549;42.686;23.300;2023-09-30T06:15:31;95214.84;;;23.13;33.97
43217;BME280;71549;42.686;23.300;2023-09-30T06:17:33;95125.13;;;22.58;34.01
43217;BME280;71549;42.686;23.300;2023-09-30T06:19:33;95213.41;;;23.15;34.15
43217;BME280;71549;42.686;23.300;2023-09-30T06:21:34;95202.69;;;23.19;34.09
43217;BME280;71549;42.686;23.300;2023-09-30T06:23:35;95215.66;;;23.25;34.38
43217;BME280;71549;42.686;23.300;2023-09-30T06:25:35;95168.91;;;23.00;34.72
43217;BME280;71549;42.686;23.300;2023-09-30T06:27:36;95175.59;;;23.03;34.37
43217;BME280;71549;42.686;23.300;2023-09-30T06:29:38;95204.41;;;23.23;34.34
43217;BME280;71549;42.686;23.300;2023-09-30T06:31:38;95217.47;;;23.34;34.27
43217;BME280;71549;42.686;23.300;2023-09-30T06:33:39;95199.00;;;23.23;34.47
43217;BME280;71549;42.686;23.300;2023-09-30T06:35:41;95217.34;;;23.42;33.93
43217;BME280;71549;42.686;23.300;2023-09-30T06:37:50;95176.25;;;23.24;34.68
43217;BME280;71549;42.686;23.300;2023-09-30T06:39:50;95205.84;;;23.45;33.69
43217;BME280;71549;42.686;23.300;2023-09-30T06:41:51;95217.47;;;23.46;33.48
43217;BME280;71549;42.686;23.300;2023-09-30T06:43:52;95211.81;;;23.51;33.27
43217;BME280;71549;42.686;23.300;2023-09-30T06:45:52;95217.56;;;23.50;33.21
43217;BME280;71549;42.686;23.300;2023-09-30T06:47:55;95215.53;;;23.46;33.08
43217;BME280;71549;42.686;23.300;2023-09-30T06:49:55;95205.84;;;23.45;32.85
43217;BME280;71549;42.686;23.300;2023-09-30T06:51:56;95186.84;;;23.30;32.86
43217;BME280;71549;42.686;23.300;2023-09-30T06:53:56;95208.69;;;23.49;32.91
43217;BME280;71549;42.686;23.300;2023-09-30T06:55:57;95079.38;;;22.61;33.23
43217;BME280;71549;42.686;23.300;2023-09-30T06:57:57;95228.72;;;23.36;33.52
43217;BME280;71549;42.686;23.300;2023-09-30T06:59:58;95135.81;;;22.66;34.10
43217;BME280;71549;42.686;23.300;2023-09-30T07:01:58;95184.56;;;22.95;33.77
43217;BME280;71549;42.686;23.300;2023-09-30T07:03:59;95151.31;;;22.57;33.73
43217;BME280;71549;42.686;23.300;2023-09-30T07:05:59;95232.50;;;23.10;33.12
43217;BME280;71549;42.686;23.300;2023-09-30T07:08:00;95235.53;;;23.09;32.98
43217;BME280;71549;42.686;23.300;2023-09-30T07:10:01;95204.69;;;22.97;33.19
43217;BME280;71549;42.686;23.300;2023-09-30T07:12:01;95197.69;;;22.84;33.40
43217;BME280;71549;42.686;23.300;2023-09-30T07:14:02;95242.88;;;23.08;33.18
43217;BME280;71549;42.686;23.300;2023-09-30T07:16:02;95211.31;;;23.00;33.03
43217;BME280;71549;42.686;23.300;2023-09-30T07:18:03;95222.00;;;22.96;33.40
43217;BME280;71549;42.686;23.300;2023-09-30T07:20:05;95229.06;;;23.22;32.98
43217;BME280;71549;42.686;23.300;2023-09-30T07:22:05;95231.06;;;23.25;32.90
43217;BME280;71549;42.686;23.300;2023-09-30T07:24:06;95225.34;;;23.26;33.12
43217;BME280;71549;42.686;23.300;2023-09-30T07:26:07;95212.50;;;23.23;33.09
43217;BME280;71549;42.686;23.300;2023-09-30T07:28:07;95229.25;;;23.29;33.01
43217;BME280;71549;42.686;23.300;2023-09-30T07:30:14;95219.41;;;23.00;33.22
43217;BME280;71549;42.686;23.300;2023-09-30T07:32:15;95233.66;;;23.09;33.20
43217;BME280;71549;42.686;23.300;2023-09-30T07:34:15;95240.84;;;23.05;33.40
43217;BME280;71549;42.686;23.300;2023-09-30T07:36:17;95237.69;;;23.03;33.64
43217;BME280;71549;42.686;23.300;2023-09-30T07:38:19;95237.34;;;23.17;33.35
43217;BME280;71549;42.686;23.300;2023-09-30T07:40:19;95228.25;;;23.09;33.38
43217;BME280;71549;42.686;23.300;2023-09-30T07:42:21;95232.84;;;23.21;33.05
43217;BME280;71549;42.686;23.300;2023-09-30T07:44:22;95239.16;;;23.25;34.40
43217;BME280;71549;42.686;23.300;2023-09-30T07:46:23;95214.31;;;23.32;33.80
43217;BME280;71549;42.686;23.300;2023-09-30T07:48:23;95232.78;;;23.42;32.82
43217;BME280;71549;42.686;23.300;2023-09-30T07:50:25;95224.69;;;23.42;33.47
43217;BME280;71549;42.686;23.300;2023-09-30T07:52:26;95237.94;;;23.47;32.26
43217;BME280;71549;42.686;23.300;2023-09-30T07:54:26;95220.16;;;23.46;32.51
43217;BME280;71549;42.686;23.300;2023-09-30T07:56:28;95122.03;;;22.93;32.03
43217;BME280;71549;42.686;23.300;2023-09-30T07:58:29;95241.44;;;23.72;32.27
43217;BME280;71549;42.686;23.300;2023-09-30T08:00:29;95242.09;;;23.69;32.03
43217;BME280;71549;42.686;23.300;2023-09-30T08:02:30;95234.69;;;23.66;31.53
43217;BME280;71549;42.686;23.300;2023-09-30T08:04:33;95233.69;;;23.46;31.49
43217;BME280;71549;42.686;23.300;2023-09-30T08:06:34;95239.16;;;23.62;32.29
43217;BME280;71549;42.686;23.300;2023-09-30T08:08:36;95214.09;;;23.37;31.39
43217;BME280;71549;42.686;23.300;2023-09-30T08:10:36;95243.00;;;23.61;31.28
43217;BME280;71549;42.686;23.300;2023-09-30T08:12:36;95237.28;;;23.62;31.38
43217;BME280;71549;42.686;23.300;2023-09-30T08:14:37;95084.22;;;22.56;31.24
43217;BME280;71549;42.686;23.300;2023-09-30T08:16:38;95233.75;;;23.37;30.77
43217;BME280;71549;42.686;23.300;2023-09-30T08:18:38;95234.34;;;23.43;30.46
43217;BME280;71549;42.686;23.300;2023-09-30T08:20:39;95237.94;;;23.59;31.33
43217;BME280;71549;42.686;23.300;2023-09-30T08:22:39;95206.09;;;23.53;31.33
43217;BME280;71549;42.686;23.300;2023-09-30T08:24:41;95239.72;;;23.67;31.33
43217;BME280;71549;42.686;23.300;2023-09-30T08:26:42;95234.78;;;23.82;31.97
43217;BME280;71549;42.686;23.300;2023-09-30T08:28:43;95226.66;;;23.94;31.39
43217;BME280;71549;42.686;23.300;2023-09-30T08:30:44;95206.97;;;23.81;31.02
43217;BME280;71549;42.686;23.300;2023-09-30T08:32:45;95196.94;;;23.82;31.10
43217;BME280;71549;42.686;23.300;2023-09-30T08:34:46;95194.03;;;23.87;30.43
43217;BME280;71549;42.686;23.300;2023-09-30T08:36:48;95225.75;;;24.02;30.22
43217;BME280;71549;42.686;23.300;2023-09-30T08:38:48;95196.94;;;23.82;30.65
43217;BME280;71549;42.686;23.300;2023-09-30T08:40:49;95235.63;;;24.11;31.43
43217;BME280;71549;42.686;23.300;2023-09-30T08:42:53;95227.28;;;24.16;31.03
43217;BME280;71549;42.686;23.300;2023-09-30T08:44:53;95220.78;;;24.04;29.58
43217;BME280;71549;42.686;23.300;2023-09-30T08:46:57;95114.50;;;23.11;29.53
43217;BME280;71549;42.686;23.300;2023-09-30T08:49:03;95226.00;;;23.73;29.68
43217;BME280;71549;42.686;23.300;2023-09-30T08:51:03;95221.16;;;23.91;29.86
43217;BME280;71549;42.686;23.300;2023-09-30T08:53:04;95224.28;;;24.05;31.14
43217;BME280;71549;42.686;23.300;2023-09-30T08:55:09;95205.88;;;24.11;30.67
43217;BME280;71549;42.686;23.300;2023-09-30T08:57:11;95182.44;;;24.15;30.00
43217;BME280;71549;42.686;23.300;2023-09-30T08:59:13;95210.63;;;24.42;29.46
43217;BME280;71549;42.686;23.300;2023-09-30T09:01:15;95204.56;;;24.33;29.60
43217;BME280;71549;42.686;23.300;2023-09-30T09:03:18;95192.63;;;24.34;29.37
43217;BME280;71549;42.686;23.300;2023-09-30T09:05:19;95208.34;;;24.56;28.94
43217;BME280;71549;42.686;23.300;2023-09-30T09:07:20;95179.72;;;24.43;28.83
43217;BME280;71549;42.686;23.300;2023-09-30T09:09:21;95147.94;;;24.24;28.80
43217;BME280;71549;42.686;23.300;2023-09-30T09:11:23;95206.16;;;24.62;29.00
43217;BME280;71549;42.686;23.300;2023-09-30T09:13:25;95202.88;;;24.69;28.60
43217;BME280;71549;42.686;23.300;2023-09-30T09:15:27;95199.66;;;24.79;28.03
43217;BME280;71549;42.686;23.300;2023-09-30T09:17:44;95196.41;;;24.73;28.25
43217;BME280;71549;42.686;23.300;2023-09-30T09:19:59;95205.22;;;24.70;27.80
43217;BME280;71549;42.686;23.300;2023-09-30T09:22:00;95196.84;;;24.75;27.61
43217;BME280;71549;42.686;23.300;2023-09-30T09:24:01;95161.97;;;24.58;27.28
43217;BME280;71549;42.686;23.300;2023-09-30T09:26:02;95200.88;;;24.81;27.00
43217;BME280;71549;42.686;23.300;2023-09-30T09:28:05;95193.19;;;24.83;26.63
43217;BME280;71549;42.686;23.300;2023-09-30T09:32:20;95191.56;;;24.95;26.73
43217;BME280;71549;42.686;23.300;2023-09-30T09:34:21;95156.75;;;24.65;26.74
43217;BME280;71549;42.686;23.300;2023-09-30T09:36:41;95063.44;;;24.15;26.83
43217;BME280;71549;42.686;23.300;2023-09-30T09:38:49;95169.25;;;24.85;26.65
43217;BME280;71549;42.686;23.300;2023-09-30T09:40:50;95189.44;;;25.04;26.84
43217;BME280;71549;42.686;23.300;2023-09-30T09:42:51;95150.75;;;24.88;26.89
43217;BME280;71549;42.686;23.300;2023-09-30T09:44:54;95185.09;;;25.15;27.04
43217;BME280;71549;42.686;23.300;2023-09-30T09:46:57;95176.00;;;25.08;26.34
43217;BME280;71549;42.686;23.300;2023-09-30T09:48:58;95180.28;;;25.09;25.89
43217;BME280;71549;42.686;23.300;2023-09-30T09:50:59;95164.63;;;25.02;26.51
43217;BME280;71549;42.686;23.300;2023-09-30T09:53:00;95188.41;;;25.09;26.56
43217;BME280;71549;42.686;23.300;2023-09-30T09:55:03;95171.28;;;25.04;26.73
43217;BME280;71549;42.686;23.300;2023-09-30T09:57:05;95184.38;;;25.18;26.82
43217;BME280;71549;42.686;23.300;2023-09-30T09:59:07;95166.13;;;25.15;26.74
43217;BME280;71549;42.686;23.300;2023-09-30T10:01:10;95172.69;;;25.30;26.85
43217;BME280;71549;42.686;23.300;2023-09-30T10:03:10;95176.63;;;25.33;26.68
43217;BME280;71549;42.686;23.300;2023-09-30T10:05:14;95157.84;;;25.24;26.53
43217;BME280;71549;42.686;23.300;2023-09-30T10:07:27;95170.94;;;25.38;26.62
43217;BME280;71549;42.686;23.300;2023-09-30T10:09:29;95173.38;;;25.27;26.13
43217;BME280;71549;42.686;23.300;2023-09-30T10:11:30;95165.63;;;25.25;26.60
43217;BME280;71549;42.686;23.300;2023-09-30T10:13:55;95160.88;;;25.38;26.48
43217;BME280;71549;42.686;23.300;2023-09-30T10:16:03;95161.56;;;25.35;26.14
43217;BME280;71549;42.686;23.300;2023-09-30T10:18:09;95162.72;;;25.34;26.41
43217;BME280;71549;42.686;23.300;2023-09-30T10:20:10;95151.69;;;25.43;26.54
43217;BME280;71549;42.686;23.300;2023-09-30T10:24:29;95127.94;;;25.20;25.72
43217;BME280;71549;42.686;23.300;2023-09-30T10:26:30;95154.69;;;25.38;26.04
43217;BME280;71549;42.686;23.300;2023-09-30T10:28:43;95138.44;;;25.38;26.13
43217;BME280;71549;42.686;23.300;2023-09-30T10:33:25;95124.00;;;25.34;24.85
43217;BME280;71549;42.686;23.300;2023-09-30T10:40:34;95138.44;;;25.38;23.83
43217;BME280;71549;42.686;23.300;2023-09-30T10:43:01;95123.72;;;25.39;24.16
43217;BME280;71549;42.686;23.300;2023-09-30T10:45:04;95122.09;;;25.34;24.75
43217;BME280;71549;42.686;23.300;2023-09-30T10:51:24;95125.09;;;25.49;24.92
43217;BME280;71549;42.686;23.300;2023-09-30T10:53:25;95117.97;;;25.40;25.15
43217;BME280;71549;42.686;23.300;2023-09-30T10:55:28;95134.38;;;25.48;24.74